sensor_id;sensor_type;location;lat;lon;timestamp;temperature;humidity
75451;DHT22;64029;48.244;9.188;2023-07-13T00:02:24;19.40;72.30
75451;DHT22;64029;48.244;9.188;2023-07-13T00:04:52;19.30;72.50
75451;DHT22;64029;48.244;9.188;2023-07-13T00:07:19;19.30;72.50
75451;DHT22;64029;48.244;9.188;2023-07-13T00:09:46;19.30;72.80
75451;DHT22;64029;48.244;9.188;2023-07-13T00:12:24;19.30;72.40
75451;DHT22;64029;48.244;9.188;2023-07-13T00:14:51;19.30;72.70
75451;DHT22;64029;48.244;9.188;2023-07-13T00:17:22;19.20;72.40
75451;DHT22;64029;48.244;9.188;2023-07-13T00:19:49;19.20;72.90
75451;DHT22;64029;48.244;9.188;2023-07-13T00:22:16;19.10;73.00
75451;DHT22;64029;48.244;9.188;2023-07-13T00:24:43;19.10;73.00
75451;DHT22;64029;48.244;9.188;2023-07-13T00:27:11;19.10;73.00
75451;DHT22;64029;48.244;9.188;2023-07-13T00:29:38;19.10;73.10
75451;DHT22;64029;48.244;9.188;2023-07-13T00:32:06;19.10;73.20
75451;DHT22;64029;48.244;9.188;2023-07-13T00:34:36;19.00;73.30
75451;DHT22;64029;48.244;9.188;2023-07-13T00:37:06;18.90;73.30
75451;DHT22;64029;48.244;9.188;2023-07-13T00:39:34;18.90;73.50
75451;DHT22;64029;48.244;9.188;2023-07-13T00:42:02;18.80;73.50
75451;DHT22;64029;48.244;9.188;2023-07-13T00:44:29;18.80;73.50
75451;DHT22;64029;48.244;9.188;2023-07-13T00:46:56;18.70;73.30
75451;DHT22;64029;48.244;9.188;2023-07-13T00:49:26;18.70;73.30
75451;DHT22;64029;48.244;9.188;2023-07-13T00:51:57;18.70;74.10
75451;DHT22;64029;48.244;9.188;2023-07-13T00:54:27;18.70;73.30
75451;DHT22;64029;48.244;9.188;2023-07-13T00:56:57;18.70;73.40
75451;DHT22;64029;48.244;9.188;2023-07-13T00:59:26;18.60;73.90
75451;DHT22;64029;48.244;9.188;2023-07-13T01:01:54;18.60;73.10
75451;DHT22;64029;48.244;9.188;2023-07-13T01:04:24;18.50;72.90
75451;DHT22;64029;48.244;9.188;2023-07-13T01:06:51;18.40;73.00
75451;DHT22;64029;48.244;9.188;2023-07-13T01:09:20;18.40;72.90
75451;DHT22;64029;48.244;9.188;2023-07-13T01:11:47;18.30;72.60
75451;DHT22;64029;48.244;9.188;2023-07-13T01:14:15;18.20;72.60
75451;DHT22;64029;48.244;9.188;2023-07-13T01:16:44;18.20;72.80
75451;DHT22;64029;48.244;9.188;2023-07-13T01:19:22;18.10;73.00
75451;DHT22;64029;48.244;9.188;2023-07-13T01:21:56;18.00;72.50
75451;DHT22;64029;48.244;9.188;2023-07-13T01:24:23;17.90;72.70
75451;DHT22;64029;48.244;9.188;2023-07-13T01:26:51;17.90;72.90
75451;DHT22;64029;48.244;9.188;2023-07-13T01:29:18;17.90;73.10
75451;DHT22;64029;48.244;9.188;2023-07-13T01:31:45;17.90;73.00
75451;DHT22;64029;48.244;9.188;2023-07-13T01:34:12;17.90;73.00
75451;DHT22;64029;48.244;9.188;2023-07-13T01:36:38;17.90;73.00
75451;DHT22;64029;48.244;9.188;2023-07-13T01:39:07;17.80;72.90
75451;DHT22;64029;48.244;9.188;2023-07-13T01:41:33;17.80;72.80
75451;DHT22;64029;48.244;9.188;2023-07-13T01:44:00;17.80;72.80
75451;DHT22;64029;48.244;9.188;2023-07-13T01:46:27;17.70;72.70
75451;DHT22;64029;48.244;9.188;2023-07-13T01:48:54;17.60;72.90
75451;DHT22;64029;48.244;9.188;2023-07-13T01:51:21;17.50;73.00
75451;DHT22;64029;48.244;9.188;2023-07-13T01:53:48;17.50;73.00
75451;DHT22;64029;48.244;9.188;2023-07-13T01:56:17;17.40;73.00
75451;DHT22;64029;48.244;9.188;2023-07-13T01:58:45;17.40;72.80
75451;DHT22;64029;48.244;9.188;2023-07-13T02:01:12;17.40;72.50
75451;DHT22;64029;48.244;9.188;2023-07-13T02:03:39;17.40;72.30
75451;DHT22;64029;48.244;9.188;2023-07-13T02:06:06;17.30;72.50
75451;DHT22;64029;48.244;9.188;2023-07-13T02:08:33;17.30;72.70
75451;DHT22;64029;48.244;9.188;2023-07-13T02:11:00;17.30;72.90
75451;DHT22;64029;48.244;9.188;2023-07-13T02:13:28;17.20;73.70
75451;DHT22;64029;48.244;9.188;2023-07-13T02:15:55;17.20;73.10
75451;DHT22;64029;48.244;9.188;2023-07-13T02:18:22;17.10;73.00
75451;DHT22;64029;48.244;9.188;2023-07-13T02:20:49;17.10;73.60
75451;DHT22;64029;48.244;9.188;2023-07-13T02:23:15;17.00;73.60
75451;DHT22;64029;48.244;9.188;2023-07-13T02:25:42;17.00;73.40
75451;DHT22;64029;48.244;9.188;2023-07-13T02:28:09;17.00;73.40
75451;DHT22;64029;48.244;9.188;2023-07-13T02:30:38;17.00;73.10
75451;DHT22;64029;48.244;9.188;2023-07-13T02:33:05;17.00;72.80
75451;DHT22;64029;48.244;9.188;2023-07-13T02:35:32;16.90;72.70
75451;DHT22;64029;48.244;9.188;2023-07-13T02:37:58;17.00;72.50
75451;DHT22;64029;48.244;9.188;2023-07-13T02:40:25;16.90;72.50
75451;DHT22;64029;48.244;9.188;2023-07-13T02:42:52;16.90;72.70
75451;DHT22;64029;48.244;9.188;2023-07-13T02:45:19;16.80;72.70
75451;DHT22;64029;48.244;9.188;2023-07-13T02:47:47;16.80;72.90
75451;DHT22;64029;48.244;9.188;2023-07-13T02:50:14;16.80;72.80
75451;DHT22;64029;48.244;9.188;2023-07-13T02:52:41;16.70;73.00
75451;DHT22;64029;48.244;9.188;2023-07-13T02:55:08;16.70;73.80
75451;DHT22;64029;48.244;9.188;2023-07-13T02:57:35;16.70;72.80
75451;DHT22;64029;48.244;9.188;2023-07-13T03:00:03;16.70;72.90
75451;DHT22;64029;48.244;9.188;2023-07-13T03:02:32;16.60;72.90
75451;DHT22;64029;48.244;9.188;2023-07-13T03:05:00;16.60;73.30
75451;DHT22;64029;48.244;9.188;2023-07-13T03:07:27;16.50;73.40
75451;DHT22;64029;48.244;9.188;2023-07-13T03:09:55;16.50;73.30
75451;DHT22;64029;48.244;9.188;2023-07-13T03:12:22;16.50;74.50
75451;DHT22;64029;48.244;9.188;2023-07-13T03:14:50;16.40;73.60
75451;DHT22;64029;48.244;9.188;2023-07-13T03:17:17;16.50;73.80
75451;DHT22;64029;48.244;9.188;2023-07-13T03:19:44;16.40;74.20
75451;DHT22;64029;48.244;9.188;2023-07-13T03:22:16;16.40;74.50
75451;DHT22;64029;48.244;9.188;2023-07-13T03:24:43;16.30;74.10
75451;DHT22;64029;48.244;9.188;2023-07-13T03:27:10;16.30;74.00
75451;DHT22;64029;48.244;9.188;2023-07-13T03:29:37;16.30;74.90
75451;DHT22;64029;48.244;9.188;2023-07-13T03:32:04;16.20;74.00
75451;DHT22;64029;48.244;9.188;2023-07-13T03:34:31;16.20;74.10
75451;DHT22;64029;48.244;9.188;2023-07-13T03:36:58;16.20;74.20
75451;DHT22;64029;48.244;9.188;2023-07-13T03:39:26;16.20;74.20
75451;DHT22;64029;48.244;9.188;2023-07-13T03:41:54;16.20;74.10
75451;DHT22;64029;48.244;9.188;2023-07-13T03:44:21;16.10;74.70
75451;DHT22;64029;48.244;9.188;2023-07-13T03:46:48;16.10;74.50
75451;DHT22;64029;48.244;9.188;2023-07-13T03:49:15;16.00;74.50
75451;DHT22;64029;48.244;9.188;2023-07-13T03:51:42;16.00;74.30
75451;DHT22;64029;48.244;9.188;2023-07-13T03:54:08;16.00;74.40
75451;DHT22;64029;48.244;9.188;2023-07-13T03:56:37;16.00;74.70
75451;DHT22;64029;48.244;9.188;2023-07-13T03:59:03;16.00;74.70
75451;DHT22;64029;48.244;9.188;2023-07-13T04:01:30;16.00;74.40
75451;DHT22;64029;48.244;9.188;2023-07-13T04:03:58;15.90;74.20
75451;DHT22;64029;48.244;9.188;2023-07-13T04:06:27;16.00;74.50
75451;DHT22;64029;48.244;9.188;2023-07-13T04:08:56;15.90;74.20
75451;DHT22;64029;48.244;9.188;2023-07-13T04:11:25;15.90;74.40
75451;DHT22;64029;48.244;9.188;2023-07-13T04:13:54;15.90;74.30
75451;DHT22;64029;48.244;9.188;2023-07-13T04:16:21;15.90;74.20
75451;DHT22;64029;48.244;9.188;2023-07-13T04:18:49;15.90;74.40
75451;DHT22;64029;48.244;9.188;2023-07-13T04:21:16;15.80;74.80
75451;DHT22;64029;48.244;9.188;2023-07-13T04:23:43;15.90;74.30
75451;DHT22;64029;48.244;9.188;2023-07-13T04:26:10;15.90;74.20
75451;DHT22;64029;48.244;9.188;2023-07-13T04:28:37;15.90;74.20
75451;DHT22;64029;48.244;9.188;2023-07-13T04:31:05;15.90;74.10
75451;DHT22;64029;48.244;9.188;2023-07-13T04:33:32;15.90;74.00
75451;DHT22;64029;48.244;9.188;2023-07-13T04:36:00;15.90;74.50
75451;DHT22;64029;48.244;9.188;2023-07-13T04:38:29;15.80;74.10
75451;DHT22;64029;48.244;9.188;2023-07-13T04:40:58;15.90;73.60
75451;DHT22;64029;48.244;9.188;2023-07-13T04:43:25;15.90;74.40
75451;DHT22;64029;48.244;9.188;2023-07-13T04:45:53;15.80;74.00
75451;DHT22;64029;48.244;9.188;2023-07-13T04:48:21;15.80;74.30
75451;DHT22;64029;48.244;9.188;2023-07-13T04:50:54;15.80;74.40
75451;DHT22;64029;48.244;9.188;2023-07-13T04:53:22;15.90;74.20
75451;DHT22;64029;48.244;9.188;2023-07-13T04:55:49;15.90;74.10
75451;DHT22;64029;48.244;9.188;2023-07-13T04:58:16;15.90;74.20
75451;DHT22;64029;48.244;9.188;2023-07-13T05:00:43;15.90;74.70
75451;DHT22;64029;48.244;9.188;2023-07-13T05:03:10;15.90;74.20
75451;DHT22;64029;48.244;9.188;2023-07-13T05:05:41;15.90;74.00
75451;DHT22;64029;48.244;9.188;2023-07-13T05:08:08;15.90;73.60
75451;DHT22;64029;48.244;9.188;2023-07-13T05:10:35;15.90;73.60
75451;DHT22;64029;48.244;9.188;2023-07-13T05:13:02;16.00;73.60
75451;DHT22;64029;48.244;9.188;2023-07-13T05:15:29;16.00;73.50
75451;DHT22;64029;48.244;9.188;2023-07-13T05:17:56;16.00;74.00
75451;DHT22;64029;48.244;9.188;2023-07-13T05:20:23;16.00;75.00
75451;DHT22;64029;48.244;9.188;2023-07-13T05:22:51;16.00;73.80
75451;DHT22;64029;48.244;9.188;2023-07-13T05:25:18;16.10;74.20
75451;DHT22;64029;48.244;9.188;2023-07-13T05:27:45;16.10;73.40
75451;DHT22;64029;48.244;9.188;2023-07-13T05:30:13;16.10;73.80
75451;DHT22;64029;48.244;9.188;2023-07-13T05:32:40;16.10;74.20
75451;DHT22;64029;48.244;9.188;2023-07-13T05:35:07;16.10;73.90
75451;DHT22;64029;48.244;9.188;2023-07-13T05:37:34;16.10;73.30
75451;DHT22;64029;48.244;9.188;2023-07-13T05:40:03;16.10;73.50
75451;DHT22;64029;48.244;9.188;2023-07-13T05:42:30;16.10;73.80
75451;DHT22;64029;48.244;9.188;2023-07-13T05:44:58;16.10;74.80
75451;DHT22;64029;48.244;9.188;2023-07-13T05:47:24;16.20;74.00
75451;DHT22;64029;48.244;9.188;2023-07-13T05:49:51;16.20;74.40
75451;DHT22;64029;48.244;9.188;2023-07-13T05:52:18;16.20;74.40
75451;DHT22;64029;48.244;9.188;2023-07-13T05:54:47;16.20;74.00
75451;DHT22;64029;48.244;9.188;2023-07-13T05:57:16;16.30;74.40
75451;DHT22;64029;48.244;9.188;2023-07-13T05:59:43;16.30;74.40
75451;DHT22;64029;48.244;9.188;2023-07-13T06:02:10;16.30;73.80
75451;DHT22;64029;48.244;9.188;2023-07-13T06:04:37;16.40;73.70
75451;DHT22;64029;48.244;9.188;2023-07-13T06:07:04;16.40;73.90
75451;DHT22;64029;48.244;9.188;2023-07-13T06:09:31;16.40;73.70
75451;DHT22;64029;48.244;9.188;2023-07-13T06:12:00;16.50;73.80
75451;DHT22;64029;48.244;9.188;2023-07-13T06:14:28;16.60;73.80
75451;DHT22;64029;48.244;9.188;2023-07-13T06:16:55;16.60;73.60
75451;DHT22;64029;48.244;9.188;2023-07-13T06:19:22;16.70;73.70
75451;DHT22;64029;48.244;9.188;2023-07-13T06:21:49;16.70;73.80
75451;DHT22;64029;48.244;9.188;2023-07-13T06:24:16;16.90;73.90
75451;DHT22;64029;48.244;9.188;2023-07-13T06:26:47;16.90;74.30
75451;DHT22;64029;48.244;9.188;2023-07-13T06:29:14;17.20;74.10
75451;DHT22;64029;48.244;9.188;2023-07-13T06:31:46;17.20;73.70
75451;DHT22;64029;48.244;9.188;2023-07-13T06:34:12;17.30;73.60
75451;DHT22;64029;48.244;9.188;2023-07-13T06:36:39;17.30;73.60
75451;DHT22;64029;48.244;9.188;2023-07-13T06:39:06;17.30;73.70
75451;DHT22;64029;48.244;9.188;2023-07-13T06:44:01;17.40;73.00
75451;DHT22;64029;48.244;9.188;2023-07-13T06:46:29;17.50;73.10
75451;DHT22;64029;48.244;9.188;2023-07-13T06:48:57;17.60;72.90
75451;DHT22;64029;48.244;9.188;2023-07-13T06:51:27;17.60;72.60
75451;DHT22;64029;48.244;9.188;2023-07-13T06:53:54;17.70;72.70
75451;DHT22;64029;48.244;9.188;2023-07-13T06:56:21;17.70;72.60
75451;DHT22;64029;48.244;9.188;2023-07-13T06:58:48;17.80;72.80
75451;DHT22;64029;48.244;9.188;2023-07-13T07:01:15;17.80;72.50
75451;DHT22;64029;48.244;9.188;2023-07-13T07:03:42;17.80;72.20
75451;DHT22;64029;48.244;9.188;2023-07-13T07:06:16;18.00;71.20
75451;DHT22;64029;48.244;9.188;2023-07-13T07:08:43;18.00;71.50
75451;DHT22;64029;48.244;9.188;2023-07-13T07:11:12;18.10;70.50
75451;DHT22;64029;48.244;9.188;2023-07-13T07:13:39;18.30;70.30
75451;DHT22;64029;48.244;9.188;2023-07-13T07:16:06;18.40;69.80
75451;DHT22;64029;48.244;9.188;2023-07-13T07:18:34;18.50;69.10
75451;DHT22;64029;48.244;9.188;2023-07-13T07:21:01;18.50;68.50
75451;DHT22;64029;48.244;9.188;2023-07-13T07:23:29;18.60;67.90
75451;DHT22;64029;48.244;9.188;2023-07-13T07:25:56;18.70;67.90
75451;DHT22;64029;48.244;9.188;2023-07-13T07:28:23;18.90;68.00
75451;DHT22;64029;48.244;9.188;2023-07-13T07:30:53;19.00;68.10
75451;DHT22;64029;48.244;9.188;2023-07-13T07:33:20;19.00;67.70
75451;DHT22;64029;48.244;9.188;2023-07-13T07:35:47;19.00;66.40
75451;DHT22;64029;48.244;9.188;2023-07-13T07:38:14;19.00;65.90
75451;DHT22;64029;48.244;9.188;2023-07-13T07:40:43;19.00;65.60
75451;DHT22;64029;48.244;9.188;2023-07-13T07:43:11;19.10;66.20
75451;DHT22;64029;48.244;9.188;2023-07-13T07:45:39;19.10;66.80
75451;DHT22;64029;48.244;9.188;2023-07-13T07:48:06;19.20;66.40
75451;DHT22;64029;48.244;9.188;2023-07-13T07:50:35;19.30;65.90
75451;DHT22;64029;48.244;9.188;2023-07-13T07:53:02;19.30;65.10
75451;DHT22;64029;48.244;9.188;2023-07-13T07:55:33;19.40;65.00
75451;DHT22;64029;48.244;9.188;2023-07-13T07:58:02;19.50;64.80
75451;DHT22;64029;48.244;9.188;2023-07-13T08:00:29;19.60;64.80
75451;DHT22;64029;48.244;9.188;2023-07-13T08:02:57;19.60;64.50
75451;DHT22;64029;48.244;9.188;2023-07-13T08:05:24;19.60;64.10
75451;DHT22;64029;48.244;9.188;2023-07-13T08:07:51;19.70;64.10
75451;DHT22;64029;48.244;9.188;2023-07-13T08:10:18;19.70;63.70
75451;DHT22;64029;48.244;9.188;2023-07-13T08:12:45;19.70;64.30
75451;DHT22;64029;48.244;9.188;2023-07-13T08:15:15;19.70;63.40
75451;DHT22;64029;48.244;9.188;2023-07-13T08:17:43;19.80;62.90
75451;DHT22;64029;48.244;9.188;2023-07-13T08:20:10;19.90;62.20
75451;DHT22;64029;48.244;9.188;2023-07-13T08:22:37;19.90;62.10
75451;DHT22;64029;48.244;9.188;2023-07-13T08:25:04;20.00;62.00
75451;DHT22;64029;48.244;9.188;2023-07-13T08:27:32;20.00;62.40
75451;DHT22;64029;48.244;9.188;2023-07-13T08:30:01;20.10;62.90
75451;DHT22;64029;48.244;9.188;2023-07-13T08:32:30;20.20;63.20
75451;DHT22;64029;48.244;9.188;2023-07-13T08:34:57;20.30;63.30
75451;DHT22;64029;48.244;9.188;2023-07-13T08:37:24;20.40;63.20
75451;DHT22;64029;48.244;9.188;2023-07-13T08:39:51;20.50;63.10
75451;DHT22;64029;48.244;9.188;2023-07-13T08:42:27;20.50;61.90
75451;DHT22;64029;48.244;9.188;2023-07-13T08:45:04;20.60;61.80
75451;DHT22;64029;48.244;9.188;2023-07-13T08:47:38;20.60;61.50
75451;DHT22;64029;48.244;9.188;2023-07-13T08:50:11;20.70;62.00
75451;DHT22;64029;48.244;9.188;2023-07-13T08:52:40;20.80;60.30
75451;DHT22;64029;48.244;9.188;2023-07-13T08:55:19;20.80;59.60
75451;DHT22;64029;48.244;9.188;2023-07-13T08:57:53;20.80;58.40
75451;DHT22;64029;48.244;9.188;2023-07-13T09:00:21;20.80;57.70
75451;DHT22;64029;48.244;9.188;2023-07-13T09:02:56;20.90;57.20
75451;DHT22;64029;48.244;9.188;2023-07-13T09:05:27;20.90;56.80
75451;DHT22;64029;48.244;9.188;2023-07-13T09:08:09;20.90;56.70
75451;DHT22;64029;48.244;9.188;2023-07-13T09:10:44;21.00;57.50
75451;DHT22;64029;48.244;9.188;2023-07-13T09:13:22;21.10;58.10
75451;DHT22;64029;48.244;9.188;2023-07-13T09:15:51;21.20;57.70
75451;DHT22;64029;48.244;9.188;2023-07-13T09:18:26;21.20;56.90
75451;DHT22;64029;48.244;9.188;2023-07-13T09:20:57;21.30;57.20
75451;DHT22;64029;48.244;9.188;2023-07-13T09:23:27;21.30;57.50
75451;DHT22;64029;48.244;9.188;2023-07-13T09:26:05;21.30;56.40
75451;DHT22;64029;48.244;9.188;2023-07-13T09:28:39;21.30;56.30
75451;DHT22;64029;48.244;9.188;2023-07-13T09:31:09;21.40;56.00
75451;DHT22;64029;48.244;9.188;2023-07-13T09:33:40;21.40;55.70
75451;DHT22;64029;48.244;9.188;2023-07-13T09:36:19;21.40;56.20
75451;DHT22;64029;48.244;9.188;2023-07-13T09:38:48;21.50;55.80
75451;DHT22;64029;48.244;9.188;2023-07-13T09:41:21;21.50;56.30
75451;DHT22;64029;48.244;9.188;2023-07-13T09:44:18;21.50;56.10
75451;DHT22;64029;48.244;9.188;2023-07-13T09:46:47;21.50;55.70
75451;DHT22;64029;48.244;9.188;2023-07-13T09:49:24;21.50;55.50
75451;DHT22;64029;48.244;9.188;2023-07-13T09:51:58;21.50;55.60
75451;DHT22;64029;48.244;9.188;2023-07-13T09:54:26;21.60;55.70
75451;DHT22;64029;48.244;9.188;2023-07-13T09:56:56;21.60;55.40
75451;DHT22;64029;48.244;9.188;2023-07-13T09:59:27;21.60;54.70
75451;DHT22;64029;48.244;9.188;2023-07-13T10:01:55;21.60;54.60
75451;DHT22;64029;48.244;9.188;2023-07-13T10:04:31;21.60;55.20
75451;DHT22;64029;48.244;9.188;2023-07-13T10:07:05;21.70;55.80
75451;DHT22;64029;48.244;9.188;2023-07-13T10:09:32;21.70;55.20
75451;DHT22;64029;48.244;9.188;2023-07-13T10:11:59;21.70;54.70
75451;DHT22;64029;48.244;9.188;2023-07-13T10:14:30;21.60;54.30
75451;DHT22;64029;48.244;9.188;2023-07-13T10:16:59;21.60;54.70
75451;DHT22;64029;48.244;9.188;2023-07-13T10:19:32;21.60;55.30
75451;DHT22;64029;48.244;9.188;2023-07-13T10:22:02;21.70;55.70
75451;DHT22;64029;48.244;9.188;2023-07-13T10:24:37;21.80;56.00
75451;DHT22;64029;48.244;9.188;2023-07-13T10:27:10;21.80;56.20
75451;DHT22;64029;48.244;9.188;2023-07-13T10:29:44;21.90;56.50
75451;DHT22;64029;48.244;9.188;2023-07-13T10:32:13;22.00;57.00
75451;DHT22;64029;48.244;9.188;2023-07-13T10:34:43;22.00;56.90
75451;DHT22;64029;48.244;9.188;2023-07-13T10:37:16;22.10;56.90
75451;DHT22;64029;48.244;9.188;2023-07-13T10:39:46;22.00;56.90
75451;DHT22;64029;48.244;9.188;2023-07-13T10:42:18;22.10;56.90
75451;DHT22;64029;48.244;9.188;2023-07-13T10:44:45;22.10;56.50
75451;DHT22;64029;48.244;9.188;2023-07-13T10:47:15;22.10;56.30
75451;DHT22;64029;48.244;9.188;2023-07-13T10:49:45;22.10;56.80
75451;DHT22;64029;48.244;9.188;2023-07-13T10:52:40;22.00;55.00
75451;DHT22;64029;48.244;9.188;2023-07-13T10:55:33;22.00;54.30
75451;DHT22;64029;48.244;9.188;2023-07-13T10:58:03;22.00;54.30
75451;DHT22;64029;48.244;9.188;2023-07-13T11:00:44;22.00;54.60
75451;DHT22;64029;48.244;9.188;2023-07-13T11:03:15;22.10;54.80
75451;DHT22;64029;48.244;9.188;2023-07-13T11:05:48;22.10;55.40
75451;DHT22;64029;48.244;9.188;2023-07-13T11:08:20;22.20;55.60
75451;DHT22;64029;48.244;9.188;2023-07-13T11:10:59;22.20;55.00
75451;DHT22;64029;48.244;9.188;2023-07-13T11:13:56;22.20;55.20
75451;DHT22;64029;48.244;9.188;2023-07-13T11:16:43;22.20;54.20
75451;DHT22;64029;48.244;9.188;2023-07-13T11:22:22;22.30;55.80
75451;DHT22;64029;48.244;9.188;2023-07-13T11:25:00;22.30;54.80
75451;DHT22;64029;48.244;9.188;2023-07-13T11:27:37;22.40;55.40
75451;DHT22;64029;48.244;9.188;2023-07-13T11:30:24;22.40;55.80
75451;DHT22;64029;48.244;9.188;2023-07-13T11:33:02;22.40;55.30
75451;DHT22;64029;48.244;9.188;2023-07-13T11:35:33;22.40;55.20
75451;DHT22;64029;48.244;9.188;2023-07-13T11:38:03;22.40;54.30
75451;DHT22;64029;48.244;9.188;2023-07-13T11:40:35;22.30;53.90
75451;DHT22;64029;48.244;9.188;2023-07-13T11:43:06;22.30;52.90
75451;DHT22;64029;48.244;9.188;2023-07-13T11:45:34;22.40;54.10
75451;DHT22;64029;48.244;9.188;2023-07-13T11:48:01;22.40;54.40
75451;DHT22;64029;48.244;9.188;2023-07-13T11:50:28;22.40;54.50
75451;DHT22;64029;48.244;9.188;2023-07-13T11:52:59;22.50;54.80
75451;DHT22;64029;48.244;9.188;2023-07-13T11:55:29;22.60;55.30
75451;DHT22;64029;48.244;9.188;2023-07-13T11:57:57;22.70;55.60
75451;DHT22;64029;48.244;9.188;2023-07-13T12:00:28;22.70;55.60
75451;DHT22;64029;48.244;9.188;2023-07-13T12:02:59;22.60;54.20
75451;DHT22;64029;48.244;9.188;2023-07-13T12:05:26;22.60;53.80
75451;DHT22;64029;48.244;9.188;2023-07-13T12:07:55;22.60;53.90
75451;DHT22;64029;48.244;9.188;2023-07-13T12:10:24;22.60;54.40
75451;DHT22;64029;48.244;9.188;2023-07-13T12:12:57;22.60;54.60
75451;DHT22;64029;48.244;9.188;2023-07-13T12:15:38;22.60;54.40
75451;DHT22;64029;48.244;9.188;2023-07-13T12:18:12;22.60;54.10
75451;DHT22;64029;48.244;9.188;2023-07-13T12:20:40;22.50;53.30
75451;DHT22;64029;48.244;9.188;2023-07-13T12:23:19;22.60;53.60
75451;DHT22;64029;48.244;9.188;2023-07-13T12:25:48;22.60;53.40
75451;DHT22;64029;48.244;9.188;2023-07-13T12:28:31;22.50;51.90
75451;DHT22;64029;48.244;9.188;2023-07-13T12:31:02;22.50;52.00
75451;DHT22;64029;48.244;9.188;2023-07-13T12:33:30;22.50;52.10
75451;DHT22;64029;48.244;9.188;2023-07-13T12:36:02;22.60;53.20
75451;DHT22;64029;48.244;9.188;2023-07-13T12:38:31;22.60;52.70
75451;DHT22;64029;48.244;9.188;2023-07-13T12:40:58;22.60;52.00
75451;DHT22;64029;48.244;9.188;2023-07-13T12:43:34;22.50;52.10
75451;DHT22;64029;48.244;9.188;2023-07-13T12:46:17;22.60;52.80
75451;DHT22;64029;48.244;9.188;2023-07-13T12:48:48;22.60;53.00
75451;DHT22;64029;48.244;9.188;2023-07-13T12:51:16;22.70;53.20
75451;DHT22;64029;48.244;9.188;2023-07-13T12:53:48;22.60;53.40
75451;DHT22;64029;48.244;9.188;2023-07-13T12:56:20;22.70;53.20
75451;DHT22;64029;48.244;9.188;2023-07-13T12:58:50;22.70;53.90
75451;DHT22;64029;48.244;9.188;2023-07-13T13:01:21;22.80;53.70
75451;DHT22;64029;48.244;9.188;2023-07-13T13:03:50;22.80;53.80
75451;DHT22;64029;48.244;9.188;2023-07-13T13:06:22;22.80;53.30
75451;DHT22;64029;48.244;9.188;2023-07-13T13:08:52;22.70;53.40
75451;DHT22;64029;48.244;9.188;2023-07-13T13:11:21;22.80;54.00
75451;DHT22;64029;48.244;9.188;2023-07-13T13:13:50;22.80;54.20
75451;DHT22;64029;48.244;9.188;2023-07-13T13:16:20;22.80;54.40
75451;DHT22;64029;48.244;9.188;2023-07-13T13:18:52;22.80;54.60
75451;DHT22;64029;48.244;9.188;2023-07-13T13:21:20;22.80;54.80
75451;DHT22;64029;48.244;9.188;2023-07-13T13:23:46;22.90;55.10
75451;DHT22;64029;48.244;9.188;2023-07-13T13:26:15;22.90;55.30
75451;DHT22;64029;48.244;9.188;2023-07-13T13:28:42;22.90;55.30
75451;DHT22;64029;48.244;9.188;2023-07-13T13:31:12;22.90;55.20
75451;DHT22;64029;48.244;9.188;2023-07-13T13:33:42;22.90;55.00
75451;DHT22;64029;48.244;9.188;2023-07-13T13:36:15;22.90;55.00
75451;DHT22;64029;48.244;9.188;2023-07-13T13:38:44;22.90;55.10
75451;DHT22;64029;48.244;9.188;2023-07-13T13:41:12;23.00;55.40
75451;DHT22;64029;48.244;9.188;2023-07-13T13:43:40;23.00;55.60
75451;DHT22;64029;48.244;9.188;2023-07-13T13:46:16;23.00;55.60
75451;DHT22;64029;48.244;9.188;2023-07-13T13:48:44;23.00;55.70
75451;DHT22;64029;48.244;9.188;2023-07-13T13:51:16;23.00;55.80
75451;DHT22;64029;48.244;9.188;2023-07-13T13:53:44;23.00;56.00
75451;DHT22;64029;48.244;9.188;2023-07-13T13:56:11;23.00;56.00
75451;DHT22;64029;48.244;9.188;2023-07-13T13:58:39;23.00;56.20
75451;DHT22;64029;48.244;9.188;2023-07-13T14:01:15;23.00;55.90
75451;DHT22;64029;48.244;9.188;2023-07-13T14:03:43;22.90;55.40
75451;DHT22;64029;48.244;9.188;2023-07-13T14:06:12;23.00;55.60
75451;DHT22;64029;48.244;9.188;2023-07-13T14:08:40;23.00;55.60
75451;DHT22;64029;48.244;9.188;2023-07-13T14:11:07;23.00;55.70
75451;DHT22;64029;48.244;9.188;2023-07-13T14:13:40;23.00;55.80
75451;DHT22;64029;48.244;9.188;2023-07-13T14:16:11;23.00;55.70
75451;DHT22;64029;48.244;9.188;2023-07-13T14:18:45;23.00;55.80
75451;DHT22;64029;48.244;9.188;2023-07-13T14:21:13;22.90;54.20
75451;DHT22;64029;48.244;9.188;2023-07-13T14:23:41;22.80;52.20
75451;DHT22;64029;48.244;9.188;2023-07-13T14:26:12;22.80;51.70
75451;DHT22;64029;48.244;9.188;2023-07-13T14:28:42;22.80;51.50
75451;DHT22;64029;48.244;9.188;2023-07-13T14:31:13;22.80;51.50
75451;DHT22;64029;48.244;9.188;2023-07-13T14:33:41;22.80;52.00
75451;DHT22;64029;48.244;9.188;2023-07-13T14:36:23;22.90;51.90
75451;DHT22;64029;48.244;9.188;2023-07-13T14:38:52;22.80;51.70
75451;DHT22;64029;48.244;9.188;2023-07-13T14:41:19;22.80;51.10
75451;DHT22;64029;48.244;9.188;2023-07-13T14:43:46;22.80;51.50
75451;DHT22;64029;48.244;9.188;2023-07-13T14:46:21;22.80;51.30
75451;DHT22;64029;48.244;9.188;2023-07-13T14:49:00;22.80;51.60
75451;DHT22;64029;48.244;9.188;2023-07-13T14:51:28;22.90;51.80
75451;DHT22;64029;48.244;9.188;2023-07-13T14:53:55;22.90;51.20
75451;DHT22;64029;48.244;9.188;2023-07-13T14:56:22;22.90;51.00
75451;DHT22;64029;48.244;9.188;2023-07-13T14:58:49;22.90;51.90
75451;DHT22;64029;48.244;9.188;2023-07-13T15:01:19;23.00;51.20
75451;DHT22;64029;48.244;9.188;2023-07-13T15:03:49;23.00;51.10
75451;DHT22;64029;48.244;9.188;2023-07-13T15:06:18;23.00;51.20
75451;DHT22;64029;48.244;9.188;2023-07-13T15:08:45;22.90;50.80
75451;DHT22;64029;48.244;9.188;2023-07-13T15:11:15;22.90;50.40
75451;DHT22;64029;48.244;9.188;2023-07-13T15:13:43;22.90;49.40
75451;DHT22;64029;48.244;9.188;2023-07-13T15:16:16;22.90;48.40
75451;DHT22;64029;48.244;9.188;2023-07-13T15:18:46;22.80;48.50
75451;DHT22;64029;48.244;9.188;2023-07-13T15:21:17;22.90;48.60
75451;DHT22;64029;48.244;9.188;2023-07-13T15:23:46;22.90;49.30
75451;DHT22;64029;48.244;9.188;2023-07-13T15:26:14;22.90;49.20
75451;DHT22;64029;48.244;9.188;2023-07-13T15:28:43;23.00;49.70
75451;DHT22;64029;48.244;9.188;2023-07-13T15:31:20;23.00;48.30
75451;DHT22;64029;48.244;9.188;2023-07-13T15:33:47;23.10;49.20
75451;DHT22;64029;48.244;9.188;2023-07-13T15:36:16;23.10;49.70
75451;DHT22;64029;48.244;9.188;2023-07-13T15:38:43;23.10;49.40
75451;DHT22;64029;48.244;9.188;2023-07-13T15:41:18;23.10;49.40
75451;DHT22;64029;48.244;9.188;2023-07-13T15:43:48;23.10;49.20
75451;DHT22;64029;48.244;9.188;2023-07-13T15:46:16;23.10;48.70
75451;DHT22;64029;48.244;9.188;2023-07-13T15:48:44;23.20;49.30
75451;DHT22;64029;48.244;9.188;2023-07-13T15:51:18;23.10;48.20